Terminal Aerodrome Forecast
Issued by NWS

Home | Current Version | Previous Version | Text Only | Print | Product List | Glossary On
Versions: 1 2 3 4 5 6 7 8 9 10 11 12 13 14 15 16
598
FTUS41 KBTV 230656 CCA
TAFMPV
TAF COR
KMPV 230656Z 2306/2406 15004KT P6SM SCT012 BKN028
      TEMPO 2307/2311 2SM BR BKN001
     FM231200 31005KT P6SM BKN060=

USA.gov is the U.S. government's official web portal to all federal, state and local government web resources and services.